Linz Hörsching Airport (LNZ/LOWL)


Airport Information
Location: Linz,
Coordinates: 48.2332 / 14.1875
Field Elevation: 978ft
Longest Runway: 9,823ft
ILS Approaches: YES
Landing Fees: $1,015 per flight
Jet A Price: $0.53/lbs

Current Weather
METAR: LOWL 011020Z AUTO 29007KT 9999 FEW019 15/09 Q1014 NOSIG
TAF: TAF LOWL 010515Z 0106/0206 VRB03KT 9999 BKN050 TX15/0111Z TN11/0106Z FM010800 26010KT CAVOK BECMG 0113/0115 -RA OVC050 TEMPO 0114/0116 RA TEMPO 0202/0206 NSW

No chart available
Flight Arriving
CPX533 EDDK - Cologne Bonn Airport
Germany Cologne, Germany
Flight Aircraft Departing
CPX545
EDDK - Cologne Bonn Airport
Germany Cologne, Germany



Recent Arrivals
Date Flight Type Depart
09/23/2022 CPX545 B738 Cologne Bonn Airport (EDDK)
09/07/2022 CPX545 B738 Cologne Bonn Airport (EDDK)
07/19/2022 CPX545 B738 Cologne Bonn Airport (EDDK)
07/18/2022 CPX545 A30F Cologne Bonn Airport (EDDK)
Recent Departures
Date Flight Type Arrive
09/23/2022 CPX533 B738 Cologne Bonn Airport (EDDK)
09/12/2022 CPX533 B738 Cologne Bonn Airport (EDDK)
07/19/2022 CPX533 B738 Cologne Bonn Airport (EDDK)
07/19/2022 CPX533 A30F Cologne Bonn Airport (EDDK)